createdAt,value
2019-01-03T00:00:11.500Z,4.35
2019-01-03T00:03:19.342Z,6.67
2019-01-03T00:09:35.080Z,8.40
2019-01-03T00:12:42.959Z,4.78
2019-01-03T00:18:49.827Z,7.73
2019-01-03T00:21:57.679Z,9.43
2019-01-03T00:25:05.464Z,7.60
2019-01-03T00:28:13.394Z,22.70
2019-01-03T00:31:21.316Z,35.87
2019-01-03T00:37:24.750Z,87.30
2019-01-03T00:40:32.579Z,75.97
2019-01-03T00:43:40.398Z,46.40
2019-01-03T00:46:48.229Z,55.03
2019-01-03T00:53:05.439Z,26.03
2019-01-03T00:56:13.258Z,21.17
2019-01-03T01:02:20.098Z,8.30
2019-01-03T01:05:20.580Z,7.37
2019-01-03T01:11:27.803Z,6.60
2019-01-03T01:14:35.638Z,7.70
2019-01-03T01:17:43.446Z,14.37
2019-01-03T01:20:51.293Z,14.17
2019-01-03T01:23:59.106Z,25.50
2019-01-03T01:27:06.949Z,20.43
2019-01-03T01:30:14.758Z,17.13
2019-01-03T01:33:22.584Z,15.60
2019-01-03T01:36:30.402Z,13.27
2019-01-03T01:39:38.238Z,12.63
2019-01-03T01:45:56.218Z,14.98
2019-01-03T01:49:04.064Z,11.40
2019-01-03T01:51:52.677Z,15.13
2019-01-03T01:57:59.726Z,14.10
2019-01-03T02:01:07.631Z,9.00
2019-01-03T02:04:15.480Z,10.03
2019-01-03T02:07:16.401Z,13.73
2019-01-03T02:13:41.024Z,9.77
2019-01-03T02:16:48.895Z,10.80
2019-01-03T02:19:56.796Z,7.70
2019-01-03T02:23:04.651Z,9.27
2019-01-03T02:26:12.531Z,10.57
2019-01-03T02:32:29.798Z,8.63
2019-01-03T02:35:37.673Z,9.23
2019-01-03T02:38:45.550Z,7.70
2019-01-03T02:44:29.846Z,13.67
2019-01-03T02:47:37.715Z,14.30
2019-01-03T02:50:26.327Z,14.33
2019-01-03T02:53:34.221Z,12.57
2019-01-03T02:56:42.113Z,15.30
2019-01-03T02:59:50.009Z,10.10
2019-01-03T03:02:57.973Z,5.73
2019-01-03T03:06:05.815Z,6.58
2019-01-03T03:09:06.562Z,6.43
2019-01-03T03:12:14.422Z,11.47
2019-01-03T03:15:22.230Z,7.90
2019-01-03T03:18:30.065Z,9.07
2019-01-03T03:21:37.871Z,7.10
2019-01-03T03:24:45.683Z,12.20
2019-01-03T03:30:49.349Z,6.03
2019-01-03T03:33:57.156Z,9.35
2019-01-03T03:37:04.987Z,10.53
2019-01-03T03:39:53.547Z,5.80
2019-01-03T03:43:01.365Z,8.63
2019-01-03T03:46:01.999Z,8.27
2019-01-03T03:49:09.841Z,8.90
2019-01-03T03:52:17.652Z,7.63
2019-01-03T03:55:25.487Z,6.10
2019-01-03T03:58:33.553Z,6.90
2019-01-03T04:01:41.383Z,11.25
2019-01-03T04:04:49.192Z,15.63
2019-01-03T04:10:52.924Z,10.98
2019-01-03T04:14:00.996Z,10.25
2019-01-03T04:17:08.842Z,9.00
2019-01-03T04:20:16.654Z,11.47
2019-01-03T04:26:23.741Z,9.83
2019-01-03T04:29:31.589Z,10.83
2019-01-03T04:32:39.400Z,5.97
2019-01-03T04:38:46.382Z,10.40
2019-01-03T04:41:54.216Z,12.30
2019-01-03T04:45:02.058Z,21.83
2019-01-03T04:48:02.395Z,6.43
2019-01-03T04:51:10.214Z,8.50
2019-01-03T04:54:18.054Z,6.00
2019-01-03T04:57:25.862Z,9.50
2019-01-03T05:00:33.948Z,11.10
2019-01-03T05:03:41.761Z,5.23
2019-01-03T05:06:49.599Z,6.37
2019-01-03T05:09:57.423Z,6.13
2019-01-03T05:13:05.255Z,5.17
2019-01-03T05:16:13.074Z,6.67
2019-01-03T05:19:20.922Z,7.85
2019-01-03T05:22:28.733Z,5.87
2019-01-03T05:34:30.877Z,7.10
2019-01-03T05:37:38.688Z,9.40
2019-01-03T05:46:41.732Z,11.43
2019-01-03T05:55:54.582Z,17.13
2019-01-03T05:59:02.418Z,11.50
2019-01-03T06:02:10.241Z,7.70
2019-01-03T06:08:19.901Z,5.80
2019-01-03T06:11:27.745Z,6.97
2019-01-03T06:14:35.570Z,7.03
2019-01-03T06:17:43.395Z,8.87
2019-01-03T06:20:51.220Z,12.43
2019-01-03T06:23:59.054Z,9.40
2019-01-03T06:30:16.265Z,7.00
2019-01-03T06:36:36.296Z,7.63
2019-01-03T06:39:43.022Z,11.73
2019-01-03T06:42:51.707Z,10.40
2019-01-03T06:46:00.400Z,23.12
2019-01-03T06:49:01.157Z,25.88
2019-01-03T06:52:08.972Z,13.07
2019-01-03T06:55:16.812Z,10.72
2019-01-03T06:58:24.639Z,12.67
2019-01-03T07:01:32.487Z,15.07
2019-01-03T07:04:40.317Z,15.48
2019-01-03T07:07:48.151Z,11.40
2019-01-03T07:10:56.776Z,12.45
2019-01-03T07:14:04.618Z,10.20
2019-01-03T07:16:55.047Z,16.37
2019-01-03T07:22:58.643Z,13.10
2019-01-03T07:26:06.476Z,15.58
2019-01-03T07:35:09.446Z,12.50
2019-01-03T07:38:17.277Z,12.77
2019-01-03T07:41:25.102Z,11.70
2019-01-03T07:47:32.072Z,10.00
2019-01-03T07:50:32.962Z,18.30
2019-01-03T07:53:40.852Z,14.30
2019-01-03T07:56:48.680Z,14.05
2019-01-03T07:59:56.512Z,16.80
2019-01-03T08:03:04.351Z,14.20
2019-01-03T08:06:12.199Z,14.47
2019-01-03T08:09:12.739Z,15.07
2019-01-03T08:12:20.585Z,13.43
2019-01-03T08:15:28.399Z,23.97
2019-01-03T08:18:36.234Z,18.40
2019-01-03T08:21:44.046Z,14.77
2019-01-03T08:24:51.876Z,25.97
2019-01-03T08:27:59.688Z,24.17
2019-01-03T08:31:07.536Z,19.73
2019-01-03T08:34:15.350Z,16.47
2019-01-03T08:37:23.258Z,22.17
2019-01-03T08:43:40.471Z,40.20
2019-01-03T08:49:50.190Z,32.47
2019-01-03T08:55:48.145Z,25.03
2019-01-03T08:58:55.975Z,29.97
2019-01-03T09:02:03.795Z,23.52
2019-01-03T09:05:11.620Z,24.73
2019-01-03T09:08:19.451Z,24.43
2019-01-03T09:14:28.103Z,23.30
2019-01-03T09:17:35.934Z,26.00
2019-01-03T09:20:43.748Z,22.60
2019-01-03T09:26:50.823Z,25.40
2019-01-03T09:29:58.656Z,18.90
2019-01-03T09:33:06.488Z,26.83
2019-01-03T09:36:14.313Z,18.87
2019-01-03T09:39:22.168Z,24.47
2019-01-03T09:42:42.453Z,26.60
2019-01-03T09:45:20.506Z,18.00
2019-01-03T09:48:09.287Z,16.63
2019-01-03T09:50:50.965Z,23.67
2019-01-03T09:53:39.760Z,43.70
2019-01-03T09:59:23.329Z,24.50
2019-01-03T10:02:12.137Z,34.80
2019-01-03T10:05:00.930Z,55.47
2019-01-03T10:07:49.741Z,34.23
2019-01-03T10:10:38.553Z,31.50
2019-01-03T10:13:27.348Z,37.00
2019-01-03T10:16:16.153Z,33.27
2019-01-03T10:19:04.949Z,29.30
2019-01-03T10:21:53.754Z,30.97
2019-01-03T10:24:42.537Z,22.47
2019-01-03T10:27:31.419Z,25.77
2019-01-03T10:30:20.213Z,21.07
2019-01-03T10:33:09.021Z,21.77
2019-01-03T10:35:58.154Z,20.87
2019-01-03T10:38:46.964Z,19.30
2019-01-03T10:41:35.753Z,22.87
2019-01-03T10:44:24.571Z,30.80
2019-01-03T10:47:13.371Z,22.37
2019-01-03T10:50:02.162Z,26.70
2019-01-03T10:52:43.690Z,22.93
2019-01-03T10:55:32.475Z,34.43
2019-01-03T10:58:21.290Z,40.83
2019-01-03T11:01:10.154Z,33.97
2019-01-03T11:04:18.011Z,38.53
2019-01-03T11:07:06.825Z,24.93
2019-01-03T11:09:55.613Z,20.50
2019-01-03T11:12:44.424Z,20.37
2019-01-03T11:15:33.211Z,18.97
2019-01-03T11:18:22.026Z,15.17
2019-01-03T11:21:10.831Z,24.27
2019-01-03T11:23:59.639Z,20.23
2019-01-03T11:26:48.795Z,21.70
2019-01-03T11:29:37.579Z,17.70
2019-01-03T11:32:26.389Z,25.53
2019-01-03T11:35:15.169Z,16.43
2019-01-03T11:38:23.005Z,23.17
2019-01-03T11:41:11.798Z,33.27
2019-01-03T11:44:00.609Z,21.73
2019-01-03T11:46:49.398Z,24.23
2019-01-03T11:49:57.237Z,21.10
2019-01-03T11:52:39.297Z,30.83
2019-01-03T11:55:28.105Z,22.73
2019-01-03T11:58:16.897Z,14.97
2019-01-03T12:01:05.706Z,10.43
2019-01-03T12:03:54.814Z,8.70
2019-01-03T12:06:43.621Z,10.57
2019-01-03T12:09:25.418Z,8.23
2019-01-03T12:15:21.971Z,6.17
2019-01-03T12:18:10.747Z,14.07
2019-01-03T12:20:59.560Z,7.67
2019-01-03T12:23:48.343Z,5.53
2019-01-03T12:26:37.156Z,10.80
2019-01-03T12:29:25.941Z,4.87
2019-01-03T12:32:14.747Z,8.20
2019-01-03T12:35:03.539Z,6.67
2019-01-03T12:37:52.372Z,5.60
2019-01-03T12:40:41.161Z,5.83
2019-01-03T12:43:29.975Z,8.97
2019-01-03T12:46:18.774Z,12.50
2019-01-03T12:49:07.576Z,8.60
2019-01-03T12:51:56.363Z,10.67
2019-01-03T12:54:45.176Z,8.40
2019-01-03T12:57:33.952Z,9.37
2019-01-03T13:00:22.757Z,4.57
2019-01-03T13:03:11.627Z,6.27
2019-01-03T13:06:00.410Z,6.70
2019-01-03T13:08:49.231Z,7.67
2019-01-03T13:11:38.029Z,9.13
2019-01-03T13:14:26.821Z,13.60
2019-01-03T13:17:15.877Z,8.90
2019-01-03T13:23:33.744Z,6.13
2019-01-03T13:26:22.551Z,8.07
2019-01-03T13:29:11.336Z,8.30
2019-01-03T13:32:00.143Z,3.23
2019-01-03T13:34:48.936Z,3.37
2019-01-03T13:37:37.737Z,9.63
2019-01-03T13:40:26.526Z,8.23
2019-01-03T13:43:15.331Z,3.87
2019-01-03T13:46:23.143Z,7.23
2019-01-03T13:49:11.950Z,8.87
2019-01-03T13:52:00.744Z,9.83
2019-01-03T13:54:49.547Z,7.57
2019-01-03T13:57:38.335Z,13.47
2019-01-03T14:00:27.151Z,7.33
2019-01-03T14:03:15.945Z,13.83
2019-01-03T14:06:04.755Z,6.83
2019-01-03T14:08:53.538Z,7.80
2019-01-03T14:11:42.341Z,5.50
2019-01-03T14:14:31.132Z,14.47
2019-01-03T14:17:19.941Z,7.40
2019-01-03T14:20:29.648Z,8.77
2019-01-03T14:23:18.461Z,5.03
2019-01-03T14:29:14.998Z,4.90
2019-01-03T14:32:03.797Z,4.57
2019-01-03T14:34:52.609Z,6.03
2019-01-03T14:37:41.389Z,3.57
2019-01-03T14:40:30.195Z,6.60
2019-01-03T14:43:18.983Z,6.00
2019-01-03T14:46:07.787Z,6.70
2019-01-03T14:48:57.584Z,5.97
2019-01-03T14:51:47.110Z,6.87
2019-01-03T14:54:29.186Z,7.40
2019-01-03T15:03:12.707Z,6.07
2019-01-03T15:06:01.765Z,9.93
2019-01-03T15:08:43.547Z,8.07
2019-01-03T15:11:32.334Z,7.20
2019-01-03T15:14:21.152Z,12.43
2019-01-03T15:17:09.938Z,6.47
2019-01-03T15:19:58.743Z,6.27
2019-01-03T15:22:47.535Z,9.13
2019-01-03T15:25:55.367Z,10.90
2019-01-03T15:28:44.195Z,11.60
2019-01-03T15:31:32.982Z,9.40
2019-01-03T15:37:29.534Z,14.27
2019-01-03T15:40:18.353Z,20.53
2019-01-03T15:43:07.202Z,17.10
2019-01-03T15:45:56.014Z,18.53
2019-01-03T15:48:44.805Z,15.60
2019-01-03T15:51:33.623Z,11.70
2019-01-03T15:54:22.407Z,20.53
2019-01-03T15:57:11.216Z,18.53
2019-01-03T16:00:00.001Z,13.77
2019-01-03T16:02:48.815Z,12.93
2019-01-03T16:05:37.602Z,9.37
2019-01-03T16:08:26.414Z,10.27
2019-01-03T16:11:07.717Z,14.07
2019-01-03T16:13:56.523Z,8.50
2019-01-03T16:16:45.319Z,16.60
2019-01-03T16:19:34.127Z,21.37
2019-01-03T16:22:22.924Z,24.75
2019-01-03T16:25:11.737Z,16.20
2019-01-03T16:28:00.531Z,6.70
2019-01-03T16:30:49.354Z,11.70
2019-01-03T16:33:38.146Z,14.00
2019-01-03T16:36:27.010Z,16.35
2019-01-03T16:39:15.804Z,40.27
2019-01-03T16:42:04.632Z,25.37
2019-01-03T16:44:53.469Z,22.13
2019-01-03T16:47:42.271Z,22.33
2019-01-03T16:50:31.077Z,15.40
2019-01-03T16:53:20.224Z,15.93
2019-01-03T16:56:09.020Z,18.83
2019-01-03T16:58:57.837Z,16.93
2019-01-03T17:01:46.631Z,19.73
2019-01-03T17:07:29.639Z,21.50
2019-01-03T17:10:18.432Z,20.73
2019-01-03T17:12:59.993Z,19.43
2019-01-03T17:15:48.788Z,18.70
2019-01-03T17:18:37.597Z,13.60
2019-01-03T17:21:26.383Z,12.17
2019-01-03T17:24:15.203Z,11.93
2019-01-03T17:27:03.986Z,8.90
2019-01-03T17:29:52.801Z,10.63
2019-01-03T17:32:41.590Z,6.73
2019-01-03T17:35:30.397Z,18.83
2019-01-03T17:38:19.189Z,7.70
2019-01-03T17:41:08.016Z,7.60
2019-01-03T17:43:56.816Z,16.40
2019-01-03T17:46:45.613Z,14.60
2019-01-03T17:52:42.151Z,13.33
2019-01-03T17:55:24.007Z,9.30
2019-01-03T17:58:12.821Z,9.37
2019-01-03T18:01:01.610Z,14.60
2019-01-03T18:03:50.429Z,13.27
2019-01-03T18:06:39.291Z,13.07
2019-01-03T18:09:28.161Z,8.33
2019-01-03T18:12:16.954Z,10.70
2019-01-03T18:18:21.046Z,10.60
2019-01-03T18:21:09.840Z,15.07
2019-01-03T18:23:58.645Z,15.20
2019-01-03T18:26:47.431Z,14.23
2019-01-03T18:29:36.245Z,14.00
2019-01-03T18:32:25.033Z,8.77
2019-01-03T18:35:13.907Z,8.83
2019-01-03T18:38:02.714Z,6.73
2019-01-03T18:40:51.525Z,10.33
2019-01-03T18:43:40.338Z,88.83
2019-01-03T18:46:29.134Z,10.65
2019-01-03T18:49:17.991Z,13.03
2019-01-03T18:52:06.780Z,12.97
2019-01-03T18:54:55.586Z,12.33
2019-01-03T18:57:37.562Z,13.95
2019-01-03T19:00:26.352Z,11.10
2019-01-03T19:03:15.166Z,6.90
2019-01-03T19:06:03.968Z,6.90
2019-01-03T19:08:52.785Z,7.43
2019-01-03T19:11:22.376Z,16.63
2019-01-03T19:14:11.300Z,9.57
2019-01-03T19:17:00.522Z,23.27
2019-01-03T19:19:49.783Z,13.13
2019-01-03T19:22:39.103Z,8.87
2019-01-03T19:28:27.186Z,12.20
2019-01-03T19:31:16.207Z,11.00
2019-01-03T19:34:05.147Z,11.03
2019-01-03T19:36:54.525Z,10.77
2019-01-03T19:39:43.507Z,15.07
2019-01-03T19:42:32.445Z,17.70
2019-01-03T19:45:21.431Z,46.73
2019-01-03T19:48:10.848Z,16.07
2019-01-03T19:57:04.502Z,36.57
2019-01-03T20:07:09.494Z,13.60
2019-01-03T20:13:51.137Z,14.20
2019-01-03T20:17:02.251Z,12.13
2019-01-03T20:30:11.995Z,12.40
2019-01-03T20:33:22.624Z,14.80
2019-01-03T20:36:33.369Z,13.43
2019-01-03T20:43:13.105Z,15.90
2019-01-03T20:49:52.215Z,16.20
2019-01-03T20:56:31.919Z,14.90
2019-01-03T20:59:02.724Z,11.77
2019-01-03T21:02:04.555Z,14.73
2019-01-03T21:07:45.614Z,13.83
2019-01-03T21:10:54.711Z,12.87
2019-01-03T21:20:50.148Z,15.70
2019-01-03T21:34:01.738Z,18.17
2019-01-03T21:37:12.016Z,16.00
2019-01-03T21:50:05.835Z,17.63
2019-01-03T21:52:59.358Z,11.90
2019-01-03T21:55:57.207Z,15.27
2019-01-03T21:58:40.837Z,17.87
2019-01-03T22:01:30.836Z,12.70
2019-01-03T22:08:21.697Z,21.03
2019-01-03T22:11:20.275Z,17.30
2019-01-03T22:14:28.731Z,12.97
2019-01-03T22:17:17.838Z,21.97
2019-01-03T22:20:27.556Z,20.07
2019-01-03T22:23:16.352Z,16.47
2019-01-03T22:26:24.292Z,15.60
2019-01-03T22:29:13.077Z,18.57
2019-01-03T22:32:01.920Z,22.53
2019-01-03T22:34:50.756Z,20.60
2019-01-03T22:37:39.596Z,21.03
2019-01-03T22:40:28.401Z,17.37
2019-01-03T22:43:17.192Z,22.10
2019-01-03T22:46:06.000Z,18.00
2019-01-03T22:49:13.915Z,25.03
2019-01-03T22:52:02.699Z,16.33
2019-01-03T22:54:51.507Z,16.20
2019-01-03T22:57:33.124Z,21.13
2019-01-03T23:00:41.413Z,17.43
2019-01-03T23:03:30.231Z,22.67
2019-01-03T23:06:19.016Z,15.40
2019-01-03T23:09:07.890Z,23.67
2019-01-03T23:11:56.689Z,26.77
2019-01-03T23:14:45.569Z,24.23
2019-01-03T23:17:34.373Z,26.83
2019-01-03T23:23:17.112Z,23.07
2019-01-03T23:29:05.139Z,16.25
2019-01-03T23:31:53.933Z,16.83
2019-01-03T23:34:42.763Z,15.90
2019-01-03T23:37:31.569Z,18.55
2019-01-03T23:40:20.389Z,14.20
2019-01-03T23:43:09.182Z,23.00
2019-01-03T23:45:57.995Z,21.70
2019-01-03T23:48:46.790Z,27.30
2019-01-03T23:51:35.607Z,21.75
2019-01-03T23:54:24.407Z,31.00
2019-01-03T23:57:13.216Z,19.57
2019-01-03T23:59:53.049Z,23.10
